createdAt,value
2019-04-03T00:00:53.826Z,0.00
2019-04-03T00:01:53.753Z,0.00
2019-04-03T00:02:53.677Z,0.00
2019-04-03T00:03:53.601Z,0.00
2019-04-03T00:04:53.527Z,0.00
2019-04-03T00:05:53.453Z,0.00
2019-04-03T00:06:53.453Z,0.00
2019-04-03T00:07:53.303Z,0.00
2019-04-03T00:08:53.228Z,0.00
2019-04-03T00:09:53.154Z,0.00
2019-04-03T00:10:53.078Z,0.00
2019-04-03T00:11:53.107Z,0.00
2019-04-03T00:12:52.931Z,0.00
2019-04-03T00:13:52.854Z,0.00
2019-04-03T00:14:52.778Z,0.00
2019-04-03T00:15:52.762Z,0.00
2019-04-03T00:16:52.628Z,0.00
2019-04-03T00:17:52.554Z,0.00
2019-04-03T00:18:52.561Z,0.00
2019-04-03T00:19:52.403Z,0.00
2019-04-03T00:20:52.330Z,0.00
2019-04-03T00:21:52.254Z,0.00
2019-04-03T00:22:52.494Z,0.00
2019-04-03T00:23:52.625Z,0.00
2019-04-03T00:24:52.583Z,0.00
2019-04-03T00:25:52.367Z,0.00
2019-04-03T00:26:52.847Z,0.00
2019-04-03T00:27:52.464Z,0.00
2019-04-03T00:28:52.271Z,0.00
2019-04-03T00:29:52.155Z,0.00
2019-04-03T00:30:52.968Z,0.00
2019-04-03T00:31:53.311Z,0.00
2019-04-03T00:32:53.169Z,0.00
2019-04-03T00:33:52.942Z,0.00
2019-04-03T00:34:51.797Z,0.00
2019-04-03T00:35:53.049Z,0.00
2019-04-03T00:36:52.928Z,0.00
2019-04-03T00:37:52.937Z,0.00
2019-04-03T00:38:50.977Z,0.00
2019-04-03T00:39:50.903Z,0.00
2019-04-03T00:40:50.826Z,0.00
2019-04-03T00:41:50.751Z,0.00
2019-04-03T00:42:50.674Z,0.00
2019-04-03T00:43:50.699Z,0.00
2019-04-03T00:44:50.524Z,0.00
2019-04-03T00:45:50.448Z,0.00
2019-04-03T00:46:50.373Z,0.00
2019-04-03T00:47:50.298Z,0.00
2019-04-03T00:48:50.221Z,0.00
2019-04-03T00:49:50.146Z,0.00
2019-04-03T00:50:50.071Z,0.00
2019-04-03T00:51:49.995Z,0.00
2019-04-03T00:52:49.922Z,0.00
2019-04-03T00:53:49.844Z,0.00
2019-04-03T00:54:49.769Z,0.00
2019-04-03T00:55:49.693Z,0.00
2019-04-03T00:56:49.617Z,0.00
2019-04-03T00:57:49.544Z,0.00
2019-04-03T00:58:49.466Z,0.00
2019-04-03T00:59:49.390Z,0.00
2019-04-03T01:00:49.346Z,0.00
2019-04-03T01:01:49.239Z,0.00
2019-04-03T01:02:49.269Z,0.00
2019-04-03T01:03:49.178Z,0.00
2019-04-03T01:04:49.012Z,0.00
2019-04-03T01:05:48.935Z,0.00
2019-04-03T01:06:48.860Z,0.00
2019-04-03T01:07:48.783Z,0.00
2019-04-03T01:08:48.707Z,0.00
2019-04-03T01:09:48.631Z,0.00
2019-04-03T01:10:48.556Z,0.00
2019-04-03T01:11:48.480Z,0.00
2019-04-03T01:12:48.404Z,0.00
2019-04-03T01:13:48.328Z,0.00
2019-04-03T01:14:48.434Z,0.00
2019-04-03T01:15:48.187Z,0.00
2019-04-03T01:16:48.105Z,0.00
2019-04-03T01:17:48.024Z,0.00
2019-04-03T01:18:47.949Z,0.00
2019-04-03T01:19:47.872Z,0.00
2019-04-03T01:20:47.796Z,0.00
2019-04-03T01:21:47.720Z,0.00
2019-04-03T01:22:47.644Z,0.00
2019-04-03T01:23:47.567Z,0.00
2019-04-03T01:24:47.490Z,0.00
2019-04-03T01:25:47.415Z,0.00
2019-04-03T01:26:47.340Z,0.00
2019-04-03T01:27:47.368Z,0.00
2019-04-03T01:28:47.288Z,0.00
2019-04-03T01:29:47.112Z,0.00
2019-04-03T01:30:47.036Z,0.00
2019-04-03T01:31:46.965Z,0.00
2019-04-03T01:32:47.181Z,0.00
2019-04-03T01:33:47.222Z,0.00
2019-04-03T01:34:47.698Z,0.00
2019-04-03T01:35:47.469Z,0.00
2019-04-03T01:36:48.094Z,0.00
2019-04-03T01:37:49.261Z,0.00
2019-04-03T01:38:46.429Z,0.00
2019-04-03T01:39:46.353Z,0.00
2019-04-03T01:40:46.280Z,0.00
2019-04-03T01:41:46.208Z,0.00
2019-04-03T01:42:46.138Z,0.00
2019-04-03T01:43:46.048Z,0.00
2019-04-03T01:44:45.973Z,0.00
2019-04-03T01:45:46.027Z,0.00
2019-04-03T01:46:45.846Z,0.00
2019-04-03T01:47:45.745Z,0.00
2019-04-03T01:48:45.729Z,0.00
2019-04-03T01:49:45.596Z,0.00
2019-04-03T01:50:45.518Z,0.00
2019-04-03T01:51:45.440Z,0.00
2019-04-03T01:52:45.366Z,0.00
2019-04-03T01:53:45.290Z,0.00
2019-04-03T01:54:45.214Z,0.00
2019-04-03T01:55:45.138Z,0.00
2019-04-03T01:56:45.062Z,0.00
2019-04-03T01:57:44.989Z,0.00
2019-04-03T01:58:44.909Z,0.00
2019-04-03T01:59:44.835Z,0.00
2019-04-03T02:00:44.756Z,0.00
2019-04-03T02:01:44.731Z,0.00
2019-04-03T02:02:44.607Z,0.00
2019-04-03T02:03:44.625Z,0.00
2019-04-03T02:04:44.457Z,0.00
2019-04-03T02:05:44.378Z,0.00
2019-04-03T02:06:44.403Z,0.00
2019-04-03T02:07:45.036Z,0.00
2019-04-03T02:08:44.940Z,0.00
2019-04-03T02:09:46.178Z,0.00
2019-04-03T02:10:43.996Z,0.00
2019-04-03T02:11:43.918Z,0.00
2019-04-03T02:12:44.018Z,0.00
2019-04-03T02:13:43.768Z,0.00
2019-04-03T02:14:43.690Z,0.00
2019-04-03T02:15:43.615Z,0.00
2019-04-03T02:16:43.695Z,0.00
2019-04-03T02:17:43.468Z,0.00
2019-04-03T02:18:43.388Z,0.00
2019-04-03T02:19:43.310Z,0.00
2019-04-03T02:20:43.236Z,0.00
2019-04-03T02:21:43.159Z,0.00
2019-04-03T02:22:43.083Z,0.00
2019-04-03T02:23:43.013Z,0.00
2019-04-03T02:24:42.931Z,0.00
2019-04-03T02:25:42.855Z,0.00
2019-04-03T02:26:42.869Z,0.00
2019-04-03T02:27:42.704Z,0.00
2019-04-03T02:28:42.627Z,0.00
2019-04-03T02:29:42.551Z,0.00
2019-04-03T02:30:44.772Z,0.00
2019-04-03T02:31:42.401Z,0.00
2019-04-03T02:32:42.515Z,0.00
2019-04-03T02:33:42.248Z,0.00
2019-04-03T02:34:42.173Z,0.00
2019-04-03T02:35:42.260Z,0.00
2019-04-03T02:36:44.028Z,0.00
2019-04-03T02:37:41.969Z,0.00
2019-04-03T02:38:42.041Z,0.00
2019-04-03T02:39:41.790Z,0.00
2019-04-03T02:40:41.715Z,0.00
2019-04-03T02:41:41.818Z,0.00
2019-04-03T02:42:42.482Z,0.00
2019-04-03T02:43:45.456Z,0.00
2019-04-03T02:44:41.431Z,0.00
2019-04-03T02:45:41.337Z,0.00
2019-04-03T02:46:41.259Z,0.00
2019-04-03T02:47:41.184Z,0.00
2019-04-03T02:48:41.369Z,0.00
2019-04-03T02:49:42.771Z,0.00
2019-04-03T02:50:41.079Z,0.00
2019-04-03T02:51:40.883Z,0.00
2019-04-03T02:52:40.805Z,0.00
2019-04-03T02:53:41.080Z,0.00
2019-04-03T02:54:40.657Z,0.00
2019-04-03T02:55:41.070Z,0.00
2019-04-03T02:56:40.756Z,0.00
2019-04-03T02:57:40.423Z,0.00
2019-04-03T02:58:40.346Z,0.00
2019-04-03T02:59:40.271Z,0.00
2019-04-03T03:00:40.195Z,0.00
2019-04-03T03:01:40.718Z,0.00
2019-04-03T03:02:40.044Z,0.00
2019-04-03T03:03:39.966Z,0.00
2019-04-03T03:04:39.902Z,0.00
2019-04-03T03:05:39.888Z,0.00
2019-04-03T03:06:39.741Z,0.00
2019-04-03T03:07:39.891Z,0.00
2019-04-03T03:08:41.641Z,0.00
2019-04-03T03:09:39.652Z,0.00
2019-04-03T03:10:39.432Z,0.00
2019-04-03T03:11:39.442Z,0.00
2019-04-03T03:12:39.284Z,0.00
2019-04-03T03:13:39.307Z,0.00
2019-04-03T03:14:40.304Z,0.00
2019-04-03T03:15:39.053Z,0.00
2019-04-03T03:16:38.988Z,0.00
2019-04-03T03:17:38.903Z,0.00
2019-04-03T03:18:38.867Z,0.00
2019-04-03T03:19:39.008Z,0.00
2019-04-03T03:20:40.767Z,0.00
2019-04-03T03:21:38.600Z,0.00
2019-04-03T03:22:38.889Z,0.00
2019-04-03T03:23:38.493Z,0.00
2019-04-03T03:24:38.684Z,0.00
2019-04-03T03:25:38.294Z,0.00
2019-04-03T03:26:38.223Z,0.00
2019-04-03T03:27:40.892Z,0.00
2019-04-03T03:28:38.115Z,0.00
2019-04-03T03:29:38.307Z,0.00
2019-04-03T03:30:45.511Z,0.00
2019-04-03T03:32:03.069Z,0.00
2019-04-03T03:32:38.489Z,0.00
2019-04-03T03:33:40.631Z,0.00
2019-04-03T03:34:50.859Z,0.00
2019-04-03T03:35:41.535Z,0.00
2019-04-03T03:36:37.985Z,0.00
2019-04-03T03:37:37.414Z,0.00
2019-04-03T03:38:39.380Z,0.00
2019-04-03T03:39:37.228Z,0.00
2019-04-03T03:40:37.151Z,0.00
2019-04-03T03:41:37.196Z,0.00
2019-04-03T03:42:37.109Z,0.00
2019-04-03T03:43:38.736Z,0.00
2019-04-03T03:44:37.037Z,0.00
2019-04-03T03:45:37.114Z,0.00
2019-04-03T03:46:36.698Z,0.00
2019-04-03T03:47:37.115Z,0.00
2019-04-03T03:48:36.544Z,0.00
2019-04-03T03:49:36.647Z,0.00
2019-04-03T03:50:36.403Z,0.00
2019-04-03T03:51:36.315Z,0.00
2019-04-03T03:52:37.998Z,0.00
2019-04-03T03:53:36.164Z,0.00
2019-04-03T03:54:36.088Z,0.00
2019-04-03T03:55:36.015Z,0.00
2019-04-03T03:56:35.937Z,0.00
2019-04-03T03:57:39.137Z,0.00
2019-04-03T03:58:35.783Z,0.00
2019-04-03T03:59:35.830Z,0.00
2019-04-03T04:00:35.631Z,0.00
2019-04-03T04:01:35.552Z,0.00
2019-04-03T04:02:36.714Z,0.00
2019-04-03T04:03:35.643Z,0.00
2019-04-03T04:04:35.330Z,0.00
2019-04-03T04:05:35.250Z,0.00
2019-04-03T04:06:36.558Z,0.00
2019-04-03T04:07:37.998Z,0.00
2019-04-03T04:08:35.305Z,0.00
2019-04-03T04:09:34.945Z,0.00
2019-04-03T04:10:36.289Z,0.00
2019-04-03T04:11:35.246Z,0.00
2019-04-03T04:12:39.347Z,0.00
2019-04-03T04:13:34.640Z,0.00
2019-04-03T04:14:34.565Z,0.00
2019-04-03T04:15:34.493Z,0.00
2019-04-03T04:16:37.054Z,0.00
2019-04-03T04:17:34.334Z,0.00
2019-04-03T04:18:34.259Z,0.00
2019-04-03T04:19:34.434Z,0.00
2019-04-03T04:20:36.628Z,0.00
2019-04-03T04:21:34.030Z,0.00
2019-04-03T04:22:33.974Z,0.00
2019-04-03T04:23:34.135Z,0.00
2019-04-03T04:24:33.798Z,0.00
2019-04-03T04:25:33.731Z,0.00
2019-04-03T04:26:33.850Z,0.00
2019-04-03T04:27:37.443Z,0.00
2019-04-03T04:28:33.491Z,0.00
2019-04-03T04:29:33.422Z,0.00
2019-04-03T04:30:33.540Z,0.00
2019-04-03T04:31:33.265Z,0.00
2019-04-03T04:32:33.306Z,0.00
2019-04-03T04:33:33.122Z,0.00
2019-04-03T04:34:33.032Z,0.00
2019-04-03T04:35:32.956Z,0.00
2019-04-03T04:36:32.879Z,0.00
2019-04-03T04:37:35.426Z,0.00
2019-04-03T04:38:32.726Z,0.00
2019-04-03T04:39:32.652Z,0.00
2019-04-03T04:40:32.637Z,0.00
2019-04-03T04:41:33.140Z,4.00
2019-04-03T04:42:34.419Z,4.00
2019-04-03T04:43:32.341Z,4.00
2019-04-03T04:44:32.328Z,0.00
2019-04-03T04:45:33.441Z,4.00
2019-04-03T04:46:32.113Z,4.00
2019-04-03T04:47:32.036Z,8.00
2019-04-03T04:48:31.960Z,8.00
2019-04-03T04:49:32.218Z,8.00
2019-04-03T04:50:31.808Z,12.00
2019-04-03T04:51:31.729Z,16.00
2019-04-03T04:52:32.150Z,16.00
2019-04-03T04:53:31.580Z,20.00
2019-04-03T04:54:31.687Z,24.00
2019-04-03T04:55:33.102Z,28.00
2019-04-03T04:56:31.351Z,32.00
2019-04-03T04:57:31.298Z,36.00
2019-04-03T04:58:31.196Z,32.00
2019-04-03T04:59:31.358Z,36.00
2019-04-03T05:00:31.040Z,44.00
2019-04-03T05:01:30.964Z,48.00
2019-04-03T05:02:30.887Z,56.00
2019-04-03T05:03:30.859Z,72.00
2019-04-03T05:04:30.733Z,92.00
2019-04-03T05:05:31.501Z,104.00
2019-04-03T05:06:30.580Z,120.00
2019-04-03T05:07:31.099Z,132.00
2019-04-03T05:08:30.855Z,148.00
2019-04-03T05:09:30.363Z,160.00
2019-04-03T05:10:30.273Z,168.00
2019-04-03T05:11:30.195Z,180.00
2019-04-03T05:12:30.120Z,188.00
2019-04-03T05:13:32.663Z,200.00
2019-04-03T05:14:29.997Z,216.00
2019-04-03T05:15:29.887Z,236.00
2019-04-03T05:16:32.432Z,244.00
2019-04-03T05:19:09.667Z,284.00
2019-04-03T05:20:02.175Z,304.00
2019-04-03T05:23:27.730Z,392.00
2019-04-03T05:24:28.897Z,420.00
2019-04-03T05:25:27.890Z,432.00
2019-04-03T05:26:27.499Z,444.00
2019-04-03T05:27:27.421Z,452.00
2019-04-03T05:28:27.345Z,464.00
2019-04-03T05:29:27.542Z,484.00
2019-04-03T05:30:27.189Z,512.00
2019-04-03T05:31:27.111Z,520.00
2019-04-03T05:32:27.035Z,524.00
2019-04-03T05:33:26.956Z,524.00
2019-04-03T05:34:26.882Z,520.00
2019-04-03T05:35:26.846Z,528.00
2019-04-03T05:36:27.017Z,544.00
2019-04-03T05:37:26.802Z,564.00
2019-04-03T05:38:26.598Z,580.00
2019-04-03T05:39:26.493Z,588.00
2019-04-03T05:40:27.024Z,588.00
2019-04-03T05:41:28.550Z,592.00
2019-04-03T05:42:26.960Z,624.00
2019-04-03T05:43:26.183Z,680.00
2019-04-03T05:44:26.366Z,736.00
2019-04-03T05:45:26.029Z,796.00
2019-04-03T05:46:25.951Z,856.00
2019-04-03T05:47:25.986Z,908.00
2019-04-03T05:48:25.824Z,952.00
2019-04-03T05:49:25.719Z,984.00
2019-04-03T05:50:26.445Z,984.00
2019-04-03T05:51:25.565Z,992.00
2019-04-03T05:52:25.488Z,1020.00
2019-04-03T05:53:25.639Z,1052.00
2019-04-03T05:54:25.448Z,1108.00
2019-04-03T05:55:25.399Z,1168.00
2019-04-03T05:56:25.177Z,1240.00
2019-04-03T05:57:25.185Z,1344.00
2019-04-03T05:58:25.302Z,1464.00
2019-04-03T05:59:24.946Z,1620.00
2019-04-03T06:00:24.870Z,1784.00
2019-04-03T06:01:24.793Z,1796.00
2019-04-03T06:02:24.712Z,1708.00
2019-04-03T06:03:37.692Z,1580.00
2019-04-03T06:04:24.595Z,1456.00
2019-04-03T06:05:24.582Z,1392.00
2019-04-03T06:06:24.404Z,1412.00
2019-04-03T06:07:24.326Z,1504.00
2019-04-03T06:08:24.248Z,1600.00
2019-04-03T06:09:24.493Z,1660.00
2019-04-03T06:10:27.090Z,1648.00
2019-04-03T06:11:24.368Z,1612.00
2019-04-03T06:12:24.270Z,1596.00
2019-04-03T06:13:23.866Z,1600.00
2019-04-03T06:14:23.978Z,1620.00
2019-04-03T06:15:23.951Z,1684.00
2019-04-03T06:16:24.828Z,1776.00
2019-04-03T06:17:23.557Z,1792.00
2019-04-03T06:18:25.758Z,1724.00
2019-04-03T06:19:23.583Z,1664.00
2019-04-03T06:20:23.321Z,1636.00
2019-04-03T06:21:23.248Z,1620.00
2019-04-03T06:22:23.166Z,1656.00
2019-04-03T06:23:23.091Z,1752.00
2019-04-03T06:24:24.335Z,1884.00
2019-04-03T06:25:23.039Z,1988.00
2019-04-03T06:26:23.401Z,2016.00
2019-04-03T06:27:22.781Z,1948.00
2019-04-03T06:28:22.703Z,1856.00
2019-04-03T06:29:22.625Z,1840.00
2019-04-03T06:30:22.912Z,1896.00
2019-04-03T06:31:22.471Z,1996.00
2019-04-03T06:32:24.343Z,2076.00
2019-04-03T06:33:22.318Z,2148.00
2019-04-03T06:34:22.248Z,2224.00
2019-04-03T06:35:22.161Z,2300.00
2019-04-03T06:36:22.083Z,2440.00
2019-04-03T06:37:22.699Z,2668.00
2019-04-03T06:38:22.497Z,2888.00
2019-04-03T06:39:23.463Z,3112.00
2019-04-03T06:40:21.775Z,3276.00
2019-04-03T06:41:21.701Z,3336.00
2019-04-03T06:42:24.302Z,3432.00
2019-04-03T06:43:21.590Z,3544.00
2019-04-03T06:44:22.660Z,3624.00
2019-04-03T06:45:21.388Z,3684.00
2019-04-03T06:46:21.311Z,3784.00
2019-04-03T06:47:21.234Z,3888.00
2019-04-03T06:48:21.157Z,3920.00
2019-04-03T06:49:21.080Z,3784.00
2019-04-03T06:50:21.002Z,3648.00
2019-04-03T06:51:20.926Z,3568.00
2019-04-03T06:52:21.510Z,3636.00
2019-04-03T06:53:20.862Z,3944.00
2019-04-03T06:54:20.936Z,4264.00
2019-04-03T06:57:46.304Z,4316.00
2019-04-03T06:58:46.184Z,4204.00
2019-04-03T06:59:46.576Z,4084.00
2019-04-03T07:00:47.312Z,4032.00
2019-04-03T07:06:56.299Z,2256.00
2019-04-03T07:15:59.728Z,3812.00
2019-04-03T07:17:01.320Z,3848.00
2019-04-03T07:18:01.349Z,3932.00
2019-04-03T07:18:59.520Z,4072.00
2019-04-03T07:20:12.626Z,4248.00
2019-04-03T07:20:59.411Z,4428.00
2019-04-03T07:21:59.261Z,4516.00
2019-04-03T07:22:59.435Z,4484.00
2019-04-03T07:55:38.395Z,6704.00
2019-04-03T07:56:38.324Z,6800.00
2019-04-03T07:57:40.939Z,7236.00
2019-04-03T07:58:38.163Z,7400.00
2019-04-03T07:59:38.085Z,7264.00
2019-04-03T08:01:20.499Z,7292.00
2019-04-03T08:02:20.417Z,7120.00
2019-04-03T08:05:46.049Z,6180.00
2019-04-03T08:06:45.907Z,5996.00
2019-04-03T08:07:45.827Z,5932.00
2019-04-03T08:08:45.752Z,5856.00
2019-04-03T08:09:45.813Z,5788.00
2019-04-03T08:10:45.598Z,5768.00
2019-04-03T08:11:45.522Z,5804.00
2019-04-03T08:12:45.497Z,5892.00
2019-04-03T08:13:45.421Z,5896.00
2019-04-03T08:14:45.387Z,5808.00
2019-04-03T08:15:45.493Z,5704.00
2019-04-03T08:16:45.890Z,5624.00
2019-04-03T08:17:45.065Z,5564.00
2019-04-03T08:18:44.990Z,5544.00
2019-04-03T08:19:45.943Z,5556.00
2019-04-03T08:20:45.112Z,5616.00
2019-04-03T08:21:44.765Z,5652.00
2019-04-03T08:22:44.890Z,5676.00
2019-04-03T08:23:44.612Z,5788.00
2019-04-03T08:24:44.536Z,6004.00
2019-04-03T08:25:47.224Z,6312.00
2019-04-03T08:26:44.864Z,6476.00
2019-04-03T08:27:44.310Z,6472.00
2019-04-03T08:28:44.543Z,6336.00
2019-04-03T08:29:44.453Z,6192.00
2019-04-03T08:30:44.084Z,6108.00
2019-04-03T08:31:48.485Z,5948.00
2019-04-03T08:32:44.054Z,5744.00
2019-04-03T08:34:36.447Z,5576.00
2019-04-03T08:35:36.503Z,5648.00
2019-04-03T08:36:38.385Z,5620.00
2019-04-03T08:37:36.124Z,5656.00
2019-04-03T08:38:36.343Z,5748.00
2019-04-03T08:39:36.596Z,5764.00
2019-04-03T08:40:35.896Z,5576.00
2019-04-03T08:41:37.714Z,5312.00
2019-04-03T08:42:35.931Z,5072.00
2019-04-03T08:43:35.670Z,4884.00
2019-04-03T08:44:36.110Z,4716.00
2019-04-03T08:45:37.840Z,4612.00
2019-04-03T08:46:35.444Z,4572.00
2019-04-03T08:47:37.126Z,4624.00
2019-04-03T08:48:35.293Z,4820.00
2019-04-03T08:49:35.218Z,5224.00
2019-04-03T08:50:35.141Z,5660.00
2019-04-03T08:51:35.067Z,5956.00
2019-04-03T08:52:37.108Z,6372.00
2019-04-03T08:53:34.916Z,7060.00
2019-04-03T08:54:34.981Z,7300.00
2019-04-03T08:55:34.763Z,7016.00
2019-04-03T08:56:34.690Z,6496.00
2019-04-03T08:57:34.624Z,6024.00
2019-04-03T08:58:34.773Z,5796.00
2019-04-03T08:59:34.465Z,5736.00
2019-04-03T09:00:34.389Z,5784.00
2019-04-03T09:01:36.615Z,6084.00
2019-04-03T09:02:34.476Z,6528.00
2019-04-03T09:03:34.317Z,6992.00
2019-04-03T09:04:34.088Z,7420.00
2019-04-03T09:05:34.113Z,7548.00
2019-04-03T09:06:33.974Z,7544.00
2019-04-03T09:07:33.862Z,7708.00
2019-04-03T09:08:33.788Z,7900.00
2019-04-03T09:09:35.188Z,7936.00
2019-04-03T09:10:36.465Z,8016.00
2019-04-03T09:11:34.071Z,8344.00
2019-04-03T09:12:33.485Z,8680.00
2019-04-03T09:13:33.480Z,9132.00
2019-04-03T09:15:28.283Z,9596.00
2019-04-03T09:17:08.489Z,9416.00
2019-04-03T09:22:17.000Z,9236.00
2019-04-03T09:23:17.025Z,7952.00
2019-04-03T09:24:16.852Z,6720.00
2019-04-03T09:25:16.774Z,5440.00
2019-04-03T09:26:16.698Z,4820.00
2019-04-03T09:27:16.624Z,4840.00
2019-04-03T09:28:16.548Z,5572.00
2019-04-03T09:29:16.535Z,6300.00
2019-04-03T09:30:16.724Z,6604.00
2019-04-03T09:31:16.824Z,6444.00
2019-04-03T09:32:16.249Z,6092.00
2019-04-03T09:33:16.173Z,5788.00
2019-04-03T09:34:16.223Z,5784.00
2019-04-03T09:35:16.149Z,6716.00
2019-04-03T09:36:15.946Z,8180.00
2019-04-03T09:37:18.177Z,9380.00
2019-04-03T09:38:15.797Z,10588.00
2019-04-03T09:39:15.889Z,11212.00
2019-04-03T09:40:17.261Z,11304.00
2019-04-03T09:41:17.107Z,11396.00
2019-04-03T09:42:15.497Z,11608.00
2019-04-03T09:43:15.746Z,12100.00
2019-04-03T09:44:15.753Z,12164.00
2019-04-03T09:45:15.279Z,11892.00
2019-04-03T09:46:15.198Z,11712.00
2019-04-03T09:47:17.747Z,13132.00
2019-04-03T09:48:15.278Z,13832.00
2019-04-03T09:49:15.258Z,14420.00
2019-04-03T09:50:15.316Z,14564.00
2019-04-03T09:51:16.055Z,14024.00
2019-04-03T09:52:15.108Z,13184.00
2019-04-03T09:53:14.947Z,12572.00
2019-04-03T09:54:14.606Z,12288.00
2019-04-03T09:55:14.532Z,11724.00
2019-04-03T09:56:14.457Z,9752.00
2019-04-03T09:57:14.407Z,8284.00
2019-04-03T09:58:14.311Z,9316.00
2019-04-03T09:59:15.858Z,10080.00
2019-04-03T10:00:14.165Z,7964.00
2019-04-03T10:01:17.698Z,6996.00
2019-04-03T10:02:14.013Z,6616.00
2019-04-03T10:03:13.940Z,6552.00
2019-04-03T10:04:13.867Z,7880.00
2019-04-03T10:05:14.007Z,7848.00
2019-04-03T10:06:14.028Z,7388.00
2019-04-03T10:07:13.646Z,5992.00
2019-04-03T10:08:13.709Z,4604.00
2019-04-03T10:09:13.499Z,6672.00
2019-04-03T10:10:14.034Z,8016.00
2019-04-03T10:11:15.190Z,9676.00
2019-04-03T10:12:13.557Z,10660.00
2019-04-03T10:13:13.377Z,9304.00
2019-04-03T10:14:13.124Z,9012.00
2019-04-03T10:15:13.055Z,7048.00
2019-04-03T10:16:15.821Z,5156.00
2019-04-03T10:17:12.901Z,3660.00
2019-04-03T10:18:12.965Z,2772.00
2019-04-03T10:19:14.543Z,2460.00
2019-04-03T10:20:12.678Z,2572.00
2019-04-03T10:21:12.606Z,2316.00
2019-04-03T10:22:12.529Z,1476.00
2019-04-03T10:23:12.453Z,1196.00
2019-04-03T10:24:12.381Z,1656.00
2019-04-03T10:25:12.568Z,2436.00
2019-04-03T10:26:12.259Z,2380.00
2019-04-03T10:27:12.587Z,1820.00
2019-04-03T10:28:15.065Z,2292.00
2019-04-03T10:29:12.042Z,3692.00
2019-04-03T10:30:12.185Z,3472.00
2019-04-03T10:31:11.852Z,2736.00
2019-04-03T10:32:11.776Z,2148.00
2019-04-03T10:33:11.700Z,1964.00
2019-04-03T10:34:13.736Z,2272.00
2019-04-03T10:35:11.550Z,3012.00
2019-04-03T10:36:12.184Z,2136.00
2019-04-03T10:37:13.824Z,1932.00
2019-04-03T10:38:11.321Z,2364.00
2019-04-03T10:39:11.283Z,2852.00
2019-04-03T10:40:11.167Z,3344.00
2019-04-03T10:41:11.534Z,3308.00
2019-04-03T10:42:11.312Z,3120.00
2019-04-03T10:43:10.939Z,3016.00
2019-04-03T10:44:10.863Z,3020.00
2019-04-03T10:45:11.027Z,2440.00
2019-04-03T10:46:10.892Z,2252.00
2019-04-03T10:47:10.636Z,2592.00
2019-04-03T10:48:10.579Z,2804.00
2019-04-03T10:49:13.098Z,2696.00
2019-04-03T10:50:10.668Z,2692.00
2019-04-03T10:51:10.704Z,3420.00
2019-04-03T10:52:14.360Z,4296.00
2019-04-03T10:53:12.793Z,4536.00
2019-04-03T10:55:22.676Z,5840.00
2019-04-03T11:16:02.398Z,15592.00
2019-04-03T11:16:59.215Z,17248.00
2019-04-03T11:17:59.494Z,17600.00
2019-04-03T11:19:04.498Z,17760.00
2019-04-03T11:19:58.978Z,17632.00
2019-04-03T11:20:58.922Z,17216.00
2019-04-03T11:21:58.826Z,20256.00
2019-04-03T11:23:05.983Z,21344.00
2019-04-03T11:23:59.218Z,19008.00
2019-04-03T11:24:58.616Z,43040.00
2019-04-03T11:25:58.543Z,28416.00
2019-04-03T11:26:58.581Z,48192.00
2019-04-03T11:27:58.382Z,35200.00
2019-04-03T11:28:58.447Z,65216.00
2019-04-03T11:29:58.261Z,28192.00
2019-04-03T11:31:00.827Z,19104.00
2019-04-03T11:31:58.078Z,22112.00
2019-04-03T11:32:58.003Z,15888.00
2019-04-03T11:33:58.412Z,29856.00
2019-04-03T11:34:57.854Z,16672.00
2019-04-03T11:35:57.849Z,20960.00
2019-04-03T11:36:59.702Z,26144.00
2019-04-03T11:37:57.634Z,19872.00
2019-04-03T11:39:10.674Z,20032.00
2019-04-03T11:40:03.769Z,13808.00
2019-04-03T11:40:57.417Z,19040.00
2019-04-03T11:41:57.623Z,13368.00
2019-04-03T11:42:57.618Z,17824.00
2019-04-03T11:43:57.523Z,15120.00
2019-04-03T11:44:57.336Z,15572.00
2019-04-03T11:45:57.101Z,14384.00
2019-04-03T11:46:57.026Z,14336.00
2019-04-03T11:47:56.921Z,14216.00
2019-04-03T11:48:56.832Z,13164.00
2019-04-03T11:49:56.759Z,13372.00
2019-04-03T11:50:57.679Z,11368.00
2019-04-03T11:51:56.614Z,11216.00
2019-04-03T11:52:56.542Z,11628.00
2019-04-03T11:53:56.536Z,11132.00
2019-04-03T11:54:56.394Z,11036.00
2019-04-03T11:55:56.390Z,10736.00
2019-04-03T11:56:57.112Z,7472.00
2019-04-03T11:57:56.172Z,6100.00
2019-04-03T11:58:56.326Z,5672.00
2019-04-03T11:59:57.104Z,5332.00
2019-04-03T12:00:55.951Z,5000.00
2019-04-03T12:01:55.879Z,4764.00
2019-04-03T12:02:55.805Z,4980.00
2019-04-03T12:03:55.730Z,5052.00
2019-04-03T12:04:55.680Z,4420.00
2019-04-03T12:05:58.205Z,4220.00
2019-04-03T12:06:55.508Z,4612.00
2019-04-03T12:07:56.669Z,5268.00
2019-04-03T12:08:55.644Z,6232.00
2019-04-03T12:09:55.286Z,7868.00
2019-04-03T12:10:55.212Z,7692.00
2019-04-03T12:11:55.549Z,7692.00
2019-04-03T12:12:55.062Z,8788.00
2019-04-03T12:13:55.040Z,7456.00
2019-04-03T12:14:54.912Z,7992.00
2019-04-03T12:15:57.706Z,10128.00
2019-04-03T12:16:57.039Z,9396.00
2019-04-03T12:17:54.689Z,7524.00
2019-04-03T12:18:54.955Z,7632.00
2019-04-03T12:19:54.538Z,8572.00
2019-04-03T12:20:54.463Z,9548.00
2019-04-03T12:21:54.387Z,10912.00
2019-04-03T12:22:55.185Z,12828.00
2019-04-03T12:23:54.363Z,9708.00
2019-04-03T12:24:54.162Z,7716.00
2019-04-03T12:25:54.089Z,7744.00
2019-04-03T12:26:55.474Z,9476.00
2019-04-03T12:27:53.938Z,12096.00
2019-04-03T12:28:53.884Z,10716.00
2019-04-03T12:29:54.550Z,8404.00
2019-04-03T12:30:53.828Z,7284.00
2019-04-03T12:31:53.752Z,7380.00
2019-04-03T12:32:53.562Z,7708.00
2019-04-03T12:33:59.059Z,6696.00
2019-04-03T12:34:53.416Z,6752.00
2019-04-03T12:35:53.339Z,8252.00
2019-04-03T12:37:40.755Z,8696.00
2019-04-03T12:38:40.876Z,9336.00
2019-04-03T12:39:40.885Z,10640.00
2019-04-03T12:40:40.529Z,11732.00
2019-04-03T12:41:42.866Z,12684.00
2019-04-03T12:42:40.380Z,11316.00
2019-04-03T12:43:40.785Z,8948.00
2019-04-03T12:44:40.232Z,7516.00
2019-04-03T12:45:40.371Z,6452.00
2019-04-03T12:46:41.216Z,6004.00
2019-04-03T12:47:42.846Z,5820.00
2019-04-03T12:48:40.094Z,5172.00
2019-04-03T12:49:40.151Z,4316.00
2019-04-03T12:50:40.120Z,3900.00
2019-04-03T12:51:39.707Z,3844.00
2019-04-03T12:52:39.775Z,4108.00
2019-04-03T12:53:39.558Z,4208.00
2019-04-03T12:54:39.485Z,3964.00
2019-04-03T12:55:42.051Z,3792.00
2019-04-03T12:56:39.332Z,3772.00
2019-04-03T12:57:40.233Z,3764.00
2019-04-03T12:58:39.185Z,3888.00
2019-04-03T12:59:41.730Z,4240.00
2019-04-03T13:00:39.197Z,4200.00
2019-04-03T13:01:39.017Z,3784.00
2019-04-03T13:02:39.026Z,3420.00
2019-04-03T13:03:38.808Z,3260.00
2019-04-03T13:04:38.734Z,3460.00
2019-04-03T13:05:38.724Z,4324.00
2019-04-03T13:06:40.557Z,5704.00
2019-04-03T13:07:38.511Z,7036.00
2019-04-03T13:08:38.546Z,7232.00
2019-04-03T13:09:38.698Z,6504.00
2019-04-03T13:10:42.579Z,6220.00
2019-04-03T13:11:38.613Z,6496.00
2019-04-03T13:12:38.142Z,7456.00
2019-04-03T13:13:38.684Z,8372.00
2019-04-03T13:15:25.854Z,8536.00
2019-04-03T13:16:25.750Z,8852.00
2019-04-03T13:17:25.813Z,8064.00
2019-04-03T13:18:25.350Z,7592.00
2019-04-03T13:19:25.630Z,7528.00
2019-04-03T13:20:25.091Z,8296.00
2019-04-03T13:22:10.261Z,15636.00
2019-04-03T13:23:07.425Z,29728.00
2019-04-03T13:24:07.365Z,28576.00
2019-04-03T13:25:07.530Z,40256.00
2019-04-03T13:26:07.411Z,42624.00
2019-04-03T13:27:07.125Z,45984.00
2019-04-03T13:28:07.187Z,45312.00
2019-04-03T13:29:08.952Z,37408.00
2019-04-03T13:30:06.904Z,33184.00
2019-04-03T13:31:09.685Z,30080.00
2019-04-03T13:32:06.755Z,20928.00
2019-04-03T13:33:07.849Z,14576.00
2019-04-03T13:34:08.246Z,11352.00
2019-04-03T13:37:24.334Z,8404.00
2019-04-03T13:38:23.966Z,8652.00
2019-04-03T13:39:24.129Z,9720.00
2019-04-03T13:40:23.791Z,11500.00
2019-04-03T13:41:23.718Z,12488.00
2019-04-03T13:42:23.644Z,12296.00
2019-04-03T13:43:23.571Z,11744.00
2019-04-03T13:44:25.957Z,10936.00
2019-04-03T13:46:52.649Z,8240.00
2019-04-03T13:47:51.004Z,5912.00
2019-04-03T13:48:50.796Z,4356.00
2019-04-03T13:49:51.171Z,2824.00
2019-04-03T13:50:54.150Z,2524.00
2019-04-03T13:51:50.577Z,2132.00
2019-04-03T13:52:51.364Z,1724.00
2019-04-03T13:53:50.969Z,1404.00
2019-04-03T13:55:34.608Z,1060.00
2019-04-03T13:56:32.768Z,1056.00
2019-04-03T13:57:32.702Z,1200.00
2019-04-03T13:58:32.847Z,1396.00
2019-04-03T13:59:32.543Z,1540.00